Time;durP1;ratioP1;P1;durP2;ratioP2;P2;SDS_P1;SDS_P2;PMS_P1;PMS_P2;Temp;Humidity;BMP_temperature;BMP_pressure;BME280_temperature;BME280_humidity;BME280_pressure;Samples;Min_cycle;Max_cycle;Signal;HPM_P1;HPM_P2
2023/01/27 02:06:33;;;;;;;28.60;12.70;;;;;;;-4.31;77.22;99963.68;80274;1299;3013334;-62
2023/01/27 02:09:00;;;;;;;24.20;13.40;;;;;;;-4.24;76.77;99963.90;79070;1299;3011636;-62
2023/01/27 02:11:29;;;;;;;28.00;12.10;;;;;;;-4.11;76.89;99967.25;77848;1305;3049779;-64
2023/01/27 02:13:59;;;;;;;26.00;11.50;;;;;;;-3.98;76.87;99964.59;79110;1301;3018828;-64
2023/01/27 02:16:28;;;;;;;25.10;12.40;;;;;;;-3.90;76.51;99954.55;77877;1301;3069866;-61
2023/01/27 02:18:55;;;;;;;22.70;11.70;;;;;;;-3.73;76.44;99956.19;77887;1296;3047254;-64
2023/01/27 02:21:22;;;;;;;28.40;12.70;;;;;;;-3.59;75.72;99957.96;79308;1301;3013122;-63
2023/01/27 02:24:00;;;;;;;23.50;10.30;;;;;;;-3.50;75.11;99961.79;78676;1301;3012982;-64
2023/01/27 02:26:33;;;;;;;23.40;11.00;;;;;;;-3.40;74.56;99962.16;77997;1301;3050025;-64
2023/01/27 02:29:11;;;;;;;25.80;11.10;;;;;;;-3.33;74.02;99960.98;79211;1301;3013086;-63
2023/01/27 02:31:40;;;;;;;24.00;10.90;;;;;;;-3.31;73.70;99972.29;78026;1301;3055099;-63
2023/01/27 02:34:09;;;;;;;28.40;12.00;;;;;;;-3.21;73.65;99974.21;79384;1301;3013419;-63
2023/01/27 02:36:41;;;;;;;20.90;10.20;;;;;;;-3.23;72.68;99975.42;78826;1296;3012571;-63
2023/01/27 02:39:10;;;;;;;26.80;12.10;;;;;;;-3.22;72.90;99978.00;79297;1296;3013208;-64
2023/01/27 02:41:40;;;;;;;26.80;10.90;;;;;;;-3.21;72.94;99980.39;77988;1296;3048689;-63
2023/01/27 02:44:06;;;;;;;23.80;10.80;;;;;;;-3.19;72.67;99983.66;79250;1296;3011581;-63
2023/01/27 02:46:33;;;;;;;25.50;10.90;;;;;;;-3.18;72.69;99985.21;79266;1300;3011665;-64
2023/01/27 02:49:01;;;;;;;25.40;11.40;;;;;;;-3.18;72.30;99985.20;78018;1309;3054204;-61
2023/01/27 02:51:28;;;;;;;29.50;11.60;;;;;;;-3.16;72.40;99977.84;79382;1305;3012733;-61
2023/01/27 02:53:55;;;;;;;27.50;12.10;;;;;;;-3.09;72.58;99968.45;79247;1301;3011499;-62
2023/01/27 02:56:23;;;;;;;29.30;11.60;;;;;;;-2.99;72.30;99967.10;78067;1300;3049645;-64
2023/01/27 02:58:51;;;;;;;24.00;10.60;;;;;;;-2.89;72.13;99968.31;79263;1302;3013527;-64
2023/01/27 03:01:25;;;;;;;23.60;10.40;;;;;;;-2.80;71.79;99966.63;78228;1298;3054039;-64
2023/01/27 03:03:52;;;;;;;25.20;10.20;;;;;;;-2.76;71.57;99961.31;79421;1308;3013287;-60
2023/01/27 03:06:21;;;;;;;29.40;12.80;;;;;;;-2.76;71.15;99957.71;79463;1296;3013188;-62
2023/01/27 03:08:48;;;;;;;29.90;12.70;;;;;;;-2.78;71.14;99958.74;78006;1301;3057233;-63
2023/01/27 03:12:18;;;;;;;29.50;12.10;;;;;;;-2.79;70.66;99961.48;79408;1295;3013239;-64
2023/01/27 03:14:07;;;;;;;26.80;11.40;;;;;;;-2.70;71.00;99947.77;78299;1307;3050413;-62
2023/01/27 03:19:20;;;;;;;26.30;11.30;;;;;;;-2.87;70.83;99943.80;78047;1301;3067287;-64
2023/01/27 03:21:49;;;;;;;26.70;11.70;;;;;;;-2.87;71.08;99947.40;79269;1296;3021266;-64
2023/01/27 03:24:21;;;;;;;27.00;11.20;;;;;;;-2.79;71.42;99953.08;78176;1295;3049108;-62
2023/01/27 03:26:48;;;;;;;30.70;11.50;;;;;;;-2.67;71.62;99950.86;79374;1300;3013385;-64
2023/01/27 03:32:03;;;;;;;24.00;11.00;;;;;;;-2.73;71.00;99950.34;78152;1302;3052619;-65
2023/01/27 03:34:31;;;;;;;23.90;9.90;;;;;;;-2.67;71.04;99954.80;79414;1295;3014663;-63
2023/01/27 03:48:22;;;;;;;25.30;12.00;;;;;;;-2.39;70.50;99946.41;78131;1301;3053094;-63
2023/01/27 03:50:52;;;;;;;27.60;12.70;;;;;;;-2.28;70.58;99942.64;79421;1301;3013329;-64
2023/01/27 03:53:21;;;;;;;31.00;13.70;;;;;;;-2.21;70.02;99940.57;78975;1296;3011459;-60
2023/01/27 03:55:47;;;;;;;27.10;13.00;;;;;;;-2.19;69.62;99939.37;79565;1298;3011655;-63
2023/01/27 03:58:19;;;;;;;32.00;12.60;;;;;;;-2.04;69.89;99936.08;79381;1296;3011601;-64
2023/01/27 04:00:55;;;;;;;29.70;12.90;;;;;;;-1.96;68.95;99938.48;78206;1300;3052486;-65
2023/01/27 04:08:59;;;;;;;31.50;12.80;;;;;;;-1.94;68.98;99945.68;78191;1295;3052173;-60
2023/01/27 04:14:12;;;;;;;30.60;13.10;;;;;;;-1.95;69.25;99947.58;78203;1295;3058248;-61
2023/01/27 04:16:39;;;;;;;29.10;13.00;;;;;;;-1.91;69.24;99950.14;79409;1298;3012821;-61
2023/01/27 04:19:07;;;;;;;31.90;13.80;;;;;;;-1.90;69.13;99948.77;79226;1295;3013611;-61
2023/01/27 04:21:35;;;;;;;30.30;13.80;;;;;;;-1.88;69.11;99948.95;78053;1301;3052294;-61
2023/01/27 04:24:03;;;;;;;31.40;13.90;;;;;;;-1.87;68.90;99957.52;79313;1298;3013060;-61
2023/01/27 04:26:33;;;;;;;27.70;13.60;;;;;;;-1.83;69.08;99953.39;79349;1301;3013147;-62
2023/01/27 04:29:01;;;;;;;26.60;12.90;;;;;;;-1.78;68.90;99950.45;78036;1298;3057294;-67
2023/01/27 04:31:28;;;;;;;33.70;13.70;;;;;;;-1.82;69.15;99941.70;79309;1300;3012836;-61
2023/01/27 04:33:54;;;;;;;30.60;13.40;;;;;;;-1.74;69.66;99937.05;79289;1295;3011610;-63
2023/01/27 04:36:22;;;;;;;32.70;13.20;;;;;;;-1.72;69.51;99932.92;78127;1300;3026023;-62
2023/01/27 04:38:49;;;;;;;29.70;13.00;;;;;;;-1.83;69.55;99929.34;79389;1298;3019319;-61
2023/01/27 04:41:15;;;;;;;35.90;14.90;;;;;;;-1.83;69.65;99930.20;79364;1299;3011765;-59
2023/01/27 04:43:43;;;;;;;30.70;14.10;;;;;;;-1.79;70.06;99939.81;78197;1301;3028135;-63
2023/01/27 04:46:10;;;;;;;35.30;14.40;;;;;;;-1.83;69.99;99941.02;79523;1299;3013811;-62
2023/01/27 04:48:36;;;;;;;32.80;15.40;;;;;;;-1.78;70.07;99939.46;79400;1295;3012881;-60
2023/01/27 04:51:04;;;;;;;32.50;15.50;;;;;;;-1.75;70.09;99939.64;78193;1300;3026396;-61
2023/01/27 04:53:31;;;;;;;30.50;15.00;;;;;;;-1.74;69.72;99935.33;79378;1298;3013792;-61
2023/01/27 04:56:05;;;;;;;41.90;17.00;;;;;;;-1.74;69.99;99936.70;79395;1298;3011694;-61
2023/01/27 04:58:33;;;;;;;30.70;14.80;;;;;;;-1.70;69.93;99935.50;78221;1295;3057350;-63
2023/01/27 05:01:00;;;;;;;37.60;14.70;;;;;;;-1.81;69.85;99932.08;79371;1296;3013372;-61
2023/01/27 05:03:29;;;;;;;38.00;15.60;;;;;;;-1.97;70.30;99935.89;79375;1301;3011490;-60
2023/01/27 05:05:57;;;;;;;33.40;15.80;;;;;;;-1.97;70.35;99939.34;78158;1308;3052786;-60
2023/01/27 05:08:23;;;;;;;35.60;15.20;;;;;;;-1.93;70.58;99940.88;79392;1298;3013323;-63
2023/01/27 05:10:51;;;;;;;38.50;16.30;;;;;;;-1.83;70.45;99951.48;79386;1301;3011884;-66
2023/01/27 05:13:19;;;;;;;39.00;15.20;;;;;;;-1.79;70.20;99962.65;78118;1298;3056274;-64
2023/01/27 05:15:46;;;;;;;32.60;15.40;;;;;;;-1.74;70.60;99963.33;79410;1299;3013246;-60
2023/01/27 05:18:13;;;;;;;32.50;15.60;;;;;;;-1.68;70.40;99959.02;79383;1295;3012751;-63
2023/01/27 05:20:41;;;;;;;31.10;14.60;;;;;;;-1.65;70.33;99964.16;78224;1299;3052080;-63
2023/01/27 05:25:55;;;;;;;29.40;13.10;;;;;;;-1.50;70.15;99969.96;78150;1301;3050641;-60
2023/01/27 05:28:21;;;;;;;31.50;14.50;;;;;;;-1.51;70.20;99971.85;79405;1296;3013003;-63
2023/01/27 05:30:48;;;;;;;36.80;14.90;;;;;;;-1.49;70.39;99974.59;79324;1299;3013102;-62
2023/01/27 05:33:15;;;;;;;33.90;15.50;;;;;;;-1.49;70.09;99977.17;78208;1299;3028830;-64
2023/01/27 05:35:42;;;;;;;34.90;15.30;;;;;;;-1.50;70.01;99977.02;79410;1301;3013525;-64
2023/01/27 05:38:09;;;;;;;39.00;16.60;;;;;;;-1.44;69.95;99977.84;79436;1295;3011775;-62
2023/01/27 05:40:37;;;;;;;37.10;16.30;;;;;;;-1.44;69.77;99975.27;78107;1301;3028711;-63
2023/01/27 05:43:04;;;;;;;42.40;16.60;;;;;;;-1.43;70.03;99968.91;79461;1296;3013355;-63
2023/01/27 05:45:31;;;;;;;44.10;18.20;;;;;;;-1.33;70.01;99969.91;79372;1295;3011734;-62
2023/01/27 05:47:59;;;;;;;29.10;14.90;;;;;;;-1.35;69.78;99973.16;78148;1299;3049596;-64
2023/01/27 05:50:28;;;;;;;33.50;14.80;;;;;;;-1.27;70.11;99972.45;79413;1301;3013452;-63
2023/01/27 05:52:57;;;;;;;36.40;15.40;;;;;;;-1.21;69.66;99977.93;78862;1296;3011868;-62
2023/01/27 05:55:24;;;;;;;34.40;15.60;;;;;;;-1.20;69.79;99981.88;79422;1301;3012850;-60
2023/01/27 05:57:50;;;;;;;39.30;18.60;;;;;;;-1.20;69.28;99986.52;79370;1299;3012840;-61
2023/01/27 06:00:19;;;;;;;45.10;17.10;;;;;;;-1.25;69.51;99992.55;78177;1295;3028255;-64
2023/01/27 06:02:46;;;;;;;36.30;16.80;;;;;;;-1.28;69.44;99990.50;79387;1296;3015094;-62
2023/01/27 06:05:12;;;;;;;38.10;16.10;;;;;;;-1.29;69.63;99989.31;79377;1296;3011602;-61
2023/01/27 06:07:41;;;;;;;38.70;16.40;;;;;;;-1.40;69.32;99986.42;78197;1302;3052756;-62
2023/01/27 06:10:09;;;;;;;36.00;15.80;;;;;;;-1.41;69.73;99981.61;79247;1300;3013652;-62
2023/01/27 06:12:36;;;;;;;39.80;15.60;;;;;;;-1.38;69.85;99983.15;79377;1295;3012007;-63
2023/01/27 06:15:08;;;;;;;40.10;16.30;;;;;;;-1.33;69.42;99979.52;78173;1301;3049901;-63
2023/01/27 06:17:35;;;;;;;49.00;17.60;;;;;;;-1.34;69.55;99973.01;79374;1296;3011487;-61
2023/01/27 06:20:02;;;;;;;44.90;18.00;;;;;;;-1.35;69.62;99973.17;79388;1298;3011864;-61
2023/01/27 06:22:30;;;;;;;40.30;17.50;;;;;;;-1.32;69.35;99972.47;78215;1301;3051637;-63
2023/01/27 06:24:57;;;;;;;44.30;18.80;;;;;;;-1.25;69.45;99971.93;79179;1299;3013180;-64
2023/01/27 06:27:26;;;;;;;49.80;19.20;;;;;;;-1.30;69.76;99977.11;79304;1295;3012990;-64
2023/01/27 06:29:54;;;;;;;38.50;18.90;;;;;;;-1.27;69.60;99979.67;78042;1301;3049110;-64
2023/01/27 06:32:21;;;;;;;46.70;19.00;;;;;;;-1.22;69.46;99976.22;79430;1298;3011843;-62
2023/01/27 06:34:47;;;;;;;42.80;18.40;;;;;;;-1.20;69.21;99973.12;79305;1296;3011966;-63
2023/01/27 06:37:15;;;;;;;43.00;20.30;;;;;;;-1.19;69.37;99978.09;78230;1294;3028283;-63
2023/01/27 06:39:42;;;;;;;42.90;17.60;;;;;;;-1.12;69.17;99971.70;79405;1298;3013435;-62
2023/01/27 06:42:08;;;;;;;43.60;19.30;;;;;;;-1.06;69.22;99968.91;79268;1298;3011735;-62
2023/01/27 06:44:38;;;;;;;43.70;17.90;;;;;;;-1.02;68.89;99960.46;78382;1295;3050352;-63
2023/01/27 06:47:04;;;;;;;42.10;17.10;;;;;;;-0.95;68.96;99961.11;79429;1297;3014023;-61
2023/01/27 06:49:31;;;;;;;38.20;17.30;;;;;;;-0.96;68.90;99960.24;79425;1296;3011574;-64
2023/01/27 06:52:01;;;;;;;40.90;17.00;;;;;;;-0.96;69.37;99963.88;78215;1302;3052476;-62
2023/01/27 06:54:28;;;;;;;38.90;16.30;;;;;;;-0.90;69.53;99962.80;79598;1295;3013681;-64
2023/01/27 06:56:54;;;;;;;36.40;16.80;;;;;;;-0.84;69.30;99963.29;79427;1295;3011823;-64
2023/01/27 06:59:22;;;;;;;35.00;17.00;;;;;;;-0.73;69.18;99963.73;78245;1298;3026055;-65
2023/01/27 07:01:48;;;;;;;38.10;17.10;;;;;;;-0.72;68.78;99958.23;79329;1295;3018737;-62
2023/01/27 07:04:15;;;;;;;40.20;17.20;;;;;;;-0.68;68.64;99958.03;79297;1298;3011600;-64
2023/01/27 07:06:43;;;;;;;38.30;16.50;;;;;;;-0.59;68.46;99955.04;78116;1301;3026290;-65
2023/01/27 07:09:10;;;;;;;33.70;15.60;;;;;;;-0.60;68.18;99955.57;79406;1298;3020938;-64
2023/01/27 07:11:36;;;;;;;39.20;17.50;;;;;;;-0.57;68.31;99957.25;79481;1294;3012926;-64
2023/01/27 07:14:04;;;;;;;38.60;16.40;;;;;;;-0.53;68.09;99950.70;78124;1298;3028334;-62
2023/01/27 07:16:32;;;;;;;38.00;17.10;;;;;;;-0.44;68.08;99950.79;79367;1296;3013441;-64
2023/01/27 07:18:58;;;;;;;45.60;18.80;;;;;;;-0.44;67.78;99949.41;79361;1298;3013022;-64
2023/01/27 10:16:16;;;;;;;42.60;18.30;;;;;;;1.41;65.64;99783.80;80104;1300;3013405;-62
2023/01/27 10:18:46;;;;;;;42.90;18.80;;;;;;;1.51;66.01;99779.46;79044;1303;3011668;-68
2023/01/27 10:21:48;;;;;;;37.40;17.90;;;;;;;1.67;65.82;99771.08;77899;1304;3050209;-66
2023/01/27 10:24:32;;;;;;;36.30;16.90;;;;;;;1.82;64.91;99771.13;77874;1305;3052096;-64
2023/01/27 10:27:06;;;;;;;47.10;18.70;;;;;;;1.85;64.36;99771.41;77879;1304;3052880;-63
2023/01/27 10:29:40;;;;;;;38.70;16.40;;;;;;;1.90;64.19;99765.79;77136;1298;3013411;-66
2023/01/27 10:32:53;;;;;;;39.60;16.60;;;;;;;2.04;64.00;99770.50;79300;1296;3013321;-63
2023/01/27 10:35:39;;;;;;;35.10;15.20;;;;;;;2.20;63.24;99766.73;78086;1300;3052841;-65
2023/01/27 10:38:19;;;;;;;33.50;16.20;;;;;;;2.37;62.71;99762.20;78115;1299;3057573;-65
2023/01/27 10:40:59;;;;;;;35.20;15.20;;;;;;;2.42;62.28;99761.91;78065;1297;3049344;-64
2023/01/27 10:43:58;;;;;;;31.40;17.30;;;;;;;2.25;62.64;99760.54;78025;1301;3053404;-61
2023/01/27 10:46:42;;;;;;;35.60;15.90;;;;;;;2.38;63.01;99759.92;78402;1299;3050569;-64
2023/01/27 10:49:22;;;;;;;35.10;16.20;;;;;;;2.42;62.49;99764.67;78201;1296;3053070;-64
2023/01/27 10:52:04;;;;;;;43.50;17.50;;;;;;;2.34;62.62;99755.52;78057;1299;3051856;-66
2023/01/27 10:55:11;;;;;;;38.80;17.20;;;;;;;2.35;62.31;99753.09;78149;1299;3071136;-68
2023/01/27 10:57:52;;;;;;;42.30;16.90;;;;;;;2.47;62.03;99749.34;77904;1302;3050069;-65
2023/01/27 11:00:32;;;;;;;42.10;17.60;;;;;;;2.48;61.77;99751.41;78069;1299;3057323;-62
2023/01/27 11:03:06;;;;;;;39.60;18.50;;;;;;;2.46;61.65;99747.30;78252;1297;3049262;-64
2023/01/27 11:05:37;;;;;;;;;;;;;;;2.40;62.04;99742.23;79624;1296;3011776;-67
2023/01/27 11:08:23;;;;;;;32.20;15.30;;;;;;;2.43;61.97;99733.71;78485;1293;3052237;-65
2023/01/27 11:13:42;;;;;;;35.40;15.40;;;;;;;2.53;62.15;99727.25;78234;1298;3052164;-68
2023/01/27 11:16:13;;;;;;;39.20;16.80;;;;;;;2.56;61.78;99716.98;79512;1298;3018552;-63
2023/01/27 11:18:45;;;;;;;35.90;15.80;;;;;;;2.66;61.46;99721.73;78306;1296;3056904;-68
2023/01/27 11:21:17;;;;;;;43.50;16.90;;;;;;;2.67;61.47;99725.53;79509;1299;3011695;-69
2023/01/27 11:23:47;;;;;;;40.00;17.00;;;;;;;2.65;61.62;99730.42;78329;1297;3052742;-68
2023/01/27 11:26:32;;;;;;;38.20;16.10;;;;;;;2.76;61.74;99728.08;79579;1298;3012844;-66
2023/01/27 11:29:15;;;;;;;38.10;16.60;;;;;;;2.68;61.38;99726.71;78381;1299;3053074;-63
2023/01/27 11:31:54;;;;;;;;;;;;;;;2.52;61.98;99723.30;78356;1298;3053159;-65
2023/01/27 11:34:36;;;;;;;36.30;14.40;;;;;;;2.48;62.29;99719.92;78296;1297;3069333;-66
2023/01/27 11:37:13;;;;;;;33.20;15.70;;;;;;;2.60;62.20;99722.58;78289;1297;3051234;-67
2023/01/27 11:39:41;;;;;;;31.30;13.50;;;;;;;2.65;61.63;99726.27;78283;1293;3058186;-64
2023/01/27 11:42:07;;;;;;;32.10;14.70;;;;;;;2.67;61.52;99724.16;79508;1299;3013261;-64
2023/01/27 11:44:34;;;;;;;38.40;14.70;;;;;;;2.66;61.90;99726.92;79488;1293;3011896;-68
2023/01/27 11:47:03;;;;;;;35.90;14.20;;;;;;;2.73;61.62;99726.09;78301;1298;3027390;-61
2023/01/27 11:49:36;;;;;;;28.00;13.40;;;;;;;2.77;61.51;99722.18;79622;1298;3013001;-65
2023/01/27 11:52:15;;;;;;;29.30;13.90;;;;;;;2.81;61.49;99719.32;78452;1298;3068779;-64
2023/01/27 11:54:45;;;;;;;27.80;13.10;;;;;;;2.85;61.22;99712.82;78389;1293;3050687;-65
2023/01/27 11:57:18;;;;;;;31.40;14.80;;;;;;;2.79;61.04;99710.00;79497;1293;3012842;-63
2023/01/27 11:59:47;;;;;;;31.60;14.40;;;;;;;2.85;60.93;99711.78;78373;1295;3049647;-69
2023/01/27 12:02:38;;;;;;;33.10;14.70;;;;;;;2.87;61.12;99712.41;79468;1299;3013484;-67
2023/01/27 12:05:23;;;;;;;33.00;13.80;;;;;;;2.91;60.87;99715.60;78313;1292;3052279;-63
2023/01/27 12:07:54;;;;;;;33.00;13.70;;;;;;;2.98;60.63;99706.42;78378;1305;3052429;-63
2023/01/27 12:10:31;;;;;;;25.70;13.40;;;;;;;3.06;60.54;99705.86;79626;1293;3011848;-64
2023/01/27 12:13:06;;;;;;;31.90;14.10;;;;;;;3.22;60.39;99693.17;78302;1293;3050152;-63
2023/01/27 12:15:35;;;;;;;29.00;13.60;;;;;;;3.21;59.96;99693.55;78363;1295;3055973;-66
2023/01/27 12:18:12;;;;;;;32.80;14.00;;;;;;;3.27;59.40;99688.34;79404;1298;3012920;-66
2023/01/27 12:20:45;;;;;;;28.00;13.20;;;;;;;3.20;59.42;99684.23;78361;1296;3050670;-68
2023/01/27 12:23:19;;;;;;;32.80;14.50;;;;;;;3.28;59.15;99683.68;79395;1293;3011481;-63
2023/01/27 12:26:09;;;;;;;31.10;14.20;;;;;;;3.37;59.13;99685.67;78393;1295;3053361;-67
2023/01/27 12:28:41;;;;;;;34.60;14.70;;;;;;;3.55;58.59;99691.92;78345;1298;3069324;-69
2023/01/27 12:31:12;;;;;;;30.30;15.40;;;;;;;3.48;58.49;99694.36;79604;1299;3011671;-69
2023/01/27 12:33:45;;;;;;;30.50;14.40;;;;;;;3.49;58.76;99698.32;78243;1298;3058057;-66
2023/01/27 12:36:17;;;;;;;30.50;15.00;;;;;;;3.55;58.79;99700.05;79581;1292;3013129;-69
2023/01/27 12:38:50;;;;;;;34.60;14.30;;;;;;;3.70;58.37;99696.88;78348;1299;3051540;-72
2023/01/27 12:41:23;;;;;;;30.80;13.20;;;;;;;3.62;58.34;99696.41;79676;1296;3011904;-69
2023/01/27 12:43:52;;;;;;;38.00;13.60;;;;;;;3.53;59.03;99693.89;78422;1298;3052896;-64
2023/01/27 12:46:19;;;;;;;30.80;13.00;;;;;;;3.67;58.94;99688.98;79572;1298;3013814;-66
2023/01/27 12:48:51;;;;;;;28.40;13.20;;;;;;;3.54;59.20;99685.90;79158;1298;3013639;-62
2023/01/27 12:51:39;;;;;;;28.20;13.20;;;;;;;3.63;59.23;99693.44;79608;1293;3013022;-64
2023/01/27 12:54:22;;;;;;;28.70;12.80;;;;;;;3.70;59.12;99690.96;78247;1298;3057316;-66
2023/01/27 12:56:54;;;;;;;30.20;13.70;;;;;;;3.66;59.25;99692.64;78318;1305;3050063;-66
2023/01/27 12:59:22;;;;;;;33.60;13.70;;;;;;;3.72;59.30;99695.78;79610;1293;3011527;-63
2023/01/27 13:02:00;;;;;;;33.70;14.00;;;;;;;3.73;59.38;99696.10;78325;1299;3026022;-66
2023/01/27 13:04:28;;;;;;;27.40;13.10;;;;;;;3.83;59.22;99702.90;78318;1298;3051469;-65
2023/01/27 13:06:56;;;;;;;28.30;12.00;;;;;;;3.87;59.20;99705.55;79449;1299;3019029;-66
2023/01/27 13:09:35;;;;;;;30.70;12.70;;;;;;;3.91;59.13;99698.88;79659;1297;3011487;-70
2023/01/27 13:12:15;;;;;;;29.20;11.80;;;;;;;3.94;58.86;99697.54;78321;1299;3057256;-66
2023/01/27 13:14:44;;;;;;;25.10;11.20;;;;;;;3.91;58.83;99700.92;78376;1305;3050071;-66
2023/01/27 13:17:50;;;;;;;25.50;11.70;;;;;;;3.87;59.03;99698.45;79235;1299;3013372;-64
2023/01/27 13:20:29;;;;;;;26.10;11.50;;;;;;;3.88;59.21;99699.98;77748;1304;3053032;-67
2023/01/27 13:23:14;;;;;;;32.70;11.80;;;;;;;3.92;59.00;99710.08;77688;1305;3052316;-69
2023/01/27 13:26:04;;;;;;;24.20;10.50;;;;;;;3.89;59.29;99708.62;78246;1300;3068890;-65
2023/01/27 13:28:54;;;;;;;22.20;10.80;;;;;;;3.89;59.11;99706.20;78376;1296;3049875;-62
2023/01/27 13:31:28;;;;;;;26.80;10.60;;;;;;;3.93;59.13;99704.00;78211;1307;3056914;-64
2023/01/27 13:34:04;;;;;;;27.30;12.20;;;;;;;3.95;59.06;99698.58;79099;1305;3011585;-61
2023/01/27 13:36:47;;;;;;;29.90;10.70;;;;;;;3.93;59.06;99699.31;78388;1299;3049247;-62
2023/01/27 13:39:44;;;;;;;22.00;10.30;;;;;;;3.87;59.16;99695.52;78316;1297;3054296;-64
2023/01/27 13:42:36;;;;;;;23.30;9.80;;;;;;;3.91;59.06;99697.98;78458;1298;3050520;-65
2023/01/27 13:45:24;;;;;;;23.90;9.60;;;;;;;3.84;59.19;99693.86;78356;1298;3052724;-64
2023/01/27 13:47:58;;;;;;;24.30;9.80;;;;;;;3.86;58.98;99697.95;78544;1298;3052863;-63
2023/01/27 13:50:45;;;;;;;24.90;9.50;;;;;;;3.81;59.04;99695.70;79339;1308;3013425;-65
2023/01/27 13:53:16;;;;;;;21.00;9.30;;;;;;;3.78;59.35;99702.38;78523;1293;3050938;-64
2023/01/27 13:55:55;;;;;;;21.20;9.10;;;;;;;3.70;59.45;99695.48;79468;1298;3011483;-65
2023/01/27 13:58:32;;;;;;;20.80;9.20;;;;;;;3.67;59.66;99690.20;78278;1298;3049393;-65
2023/01/27 14:01:18;;;;;;;18.20;9.30;;;;;;;3.63;59.82;99692.55;78256;1298;3053162;-66
2023/01/27 14:04:05;;;;;;;20.60;9.90;;;;;;;3.63;60.00;99696.20;78385;1297;3051748;-66
2023/01/27 14:06:45;;;;;;;32.20;10.80;;;;;;;3.58;59.89;99696.69;78467;1298;3052423;-65
2023/01/27 14:09:31;;;;;;;18.00;9.30;;;;;;;3.48;60.35;99693.15;78428;1298;3051935;-65
2023/01/27 14:12:03;;;;;;;21.40;9.80;;;;;;;3.48;60.58;99686.39;78220;1295;3069420;-64
2023/01/27 14:14:42;;;;;;;20.80;9.30;;;;;;;3.48;60.68;99686.40;79431;1298;3012893;-64
2023/01/27 14:17:40;;;;;;;24.30;10.70;;;;;;;3.48;60.37;99687.61;78385;1293;3058293;-63
2023/01/27 14:20:20;;;;;;;22.70;9.70;;;;;;;3.40;60.57;99685.23;78392;1296;3049273;-63
2023/01/27 14:23:25;;;;;;;23.40;9.70;;;;;;;3.42;60.58;99684.33;78310;1293;3053113;-63
2023/01/27 14:26:22;;;;;;;17.10;8.80;;;;;;;3.47;60.44;99684.36;78307;1298;3050154;-65
2023/01/27 14:29:15;;;;;;;20.90;9.00;;;;;;;3.41;60.52;99688.83;78514;1298;3053335;-64
2023/01/27 14:31:45;;;;;;;18.50;8.10;;;;;;;3.32;60.57;99689.45;78549;1302;3052797;-63
2023/01/27 14:34:27;;;;;;;17.30;8.30;;;;;;;3.23;61.04;99683.79;79550;1298;3011925;-65
2023/01/27 14:37:01;;;;;;;17.60;7.80;;;;;;;3.22;61.07;99674.14;78234;1298;3051189;-63
2023/01/27 14:39:33;;;;;;;18.70;8.40;;;;;;;3.13;60.93;99666.94;79445;1293;3011669;-64
2023/01/27 14:42:06;;;;;;;14.70;8.30;;;;;;;3.04;61.26;99669.06;78356;1298;3048557;-65
2023/01/27 14:45:09;;;;;;;14.00;8.00;;;;;;;2.99;61.30;99671.10;79542;1297;3012955;-64
2023/01/27 14:47:42;;;;;;;19.90;8.20;;;;;;;2.89;61.20;99672.04;78384;1297;3050231;-67
2023/01/27 14:50:30;;;;;;;;;;;;;;;2.85;61.66;99669.91;79648;1298;3011557;-65
2023/01/27 14:53:40;;;;;;;13.50;6.50;;;;;;;2.77;61.78;99666.65;78247;1298;3054286;-65
2023/01/27 14:56:17;;;;;;;14.90;7.40;;;;;;;2.70;61.73;99668.89;78025;1299;3069270;-65
2023/01/27 14:58:46;;;;;;;19.10;8.00;;;;;;;2.62;61.86;99670.64;78275;1293;3051722;-66
2023/01/27 15:01:18;;;;;;;17.40;7.80;;;;;;;2.62;61.98;99669.09;79504;1296;3013996;-65
2023/01/27 15:04:11;;;;;;;15.40;8.10;;;;;;;2.53;61.98;99670.19;78221;1296;3053684;-64
2023/01/27 15:06:43;;;;;;;16.60;8.40;;;;;;;2.48;62.33;99668.73;78232;1298;3050864;-66
2023/01/27 15:09:39;;;;;;;19.60;8.40;;;;;;;2.39;62.43;99669.64;79614;1298;3013453;-63
2023/01/27 15:12:15;;;;;;;15.00;7.30;;;;;;;2.36;62.54;99670.42;78335;1298;3052656;-65
2023/01/27 15:14:59;;;;;;;18.60;7.40;;;;;;;2.37;62.60;99672.63;79042;1293;3011575;-65
2023/01/27 15:17:41;;;;;;;13.10;7.20;;;;;;;2.37;62.27;99664.86;78284;1293;3069835;-64
2023/01/27 15:20:50;;;;;;;15.70;7.40;;;;;;;2.35;62.17;99670.79;78371;1296;3051404;-65
2023/01/27 15:23:23;;;;;;;13.60;6.40;;;;;;;2.28;62.07;99670.77;78000;1301;3056186;-65
2023/01/27 15:25:51;;;;;;;14.20;7.00;;;;;;;2.21;62.20;99668.33;79093;1299;3011615;-65
2023/01/27 15:28:23;;;;;;;15.20;7.20;;;;;;;2.14;62.34;99663.66;78035;1295;3053661;-65
2023/01/27 15:31:08;;;;;;;15.30;7.40;;;;;;;2.06;62.36;99656.24;79601;1293;3011933;-64
2023/01/27 15:33:54;;;;;;;19.70;7.30;;;;;;;2.05;62.26;99652.30;78295;1297;3052542;-64
2023/01/27 15:36:31;;;;;;;17.20;7.10;;;;;;;1.98;62.73;99657.96;78279;1299;3052345;-65
2023/01/27 15:39:07;;;;;;;18.00;7.00;;;;;;;2.03;62.46;99662.71;78512;1298;3068892;-62
2023/01/27 15:41:56;;;;;;;13.80;6.80;;;;;;;1.95;62.45;99663.58;78344;1298;3052190;-64
2023/01/27 15:44:24;;;;;;;16.50;7.40;;;;;;;1.92;62.72;99663.13;78376;1299;3056776;-66
2023/01/27 15:46:54;;;;;;;14.10;7.10;;;;;;;1.87;62.88;99662.88;79852;1298;3018750;-66
2023/01/27 15:49:50;;;;;;;20.20;7.80;;;;;;;1.86;62.96;99663.08;78351;1298;3050394;-64
2023/01/27 15:52:26;;;;;;;17.00;6.40;;;;;;;1.82;63.14;99667.47;78346;1298;3052630;-64
2023/01/27 15:54:55;;;;;;;19.40;7.80;;;;;;;1.87;63.11;99669.62;78541;1298;3051623;-62
2023/01/27 15:57:35;;;;;;;15.90;7.20;;;;;;;1.82;63.10;99668.16;79493;1295;3013860;-67
2023/01/27 16:00:20;;;;;;;13.80;7.50;;;;;;;1.80;63.29;99669.42;78359;1298;3059713;-64
2023/01/27 16:02:51;;;;;;;16.20;7.40;;;;;;;1.75;63.39;99670.92;78332;1298;3049284;-63
2023/01/27 16:05:35;;;;;;;17.10;7.20;;;;;;;1.80;63.20;99672.88;79616;1293;3012879;-64
2023/01/27 16:08:09;;;;;;;15.20;7.70;;;;;;;1.76;63.12;99673.13;78577;1298;3049919;-65
2023/01/27 16:10:35;;;;;;;16.20;7.00;;;;;;;1.74;63.19;99673.52;79537;1298;3013185;-63
2023/01/27 16:13:22;;;;;;;16.20;6.90;;;;;;;1.72;63.23;99669.25;78400;1292;3052188;-63
2023/01/27 16:16:16;;;;;;;20.30;7.60;;;;;;;1.72;63.18;99673.39;78336;1298;3069535;-63
2023/01/27 16:18:56;;;;;;;13.50;6.30;;;;;;;1.68;63.32;99670.02;78269;1297;3051379;-62
2023/01/27 19:46:45;;;;;;;28.60;12.10;;;;;;;-0.93;70.10;99583.29;79970;1298;3012998;-61
2023/01/27 19:49:16;;;;;;;26.80;12.20;;;;;;;-0.84;70.44;99581.10;79105;1303;3013302;-62
2023/01/27 19:51:44;;;;;;;29.00;11.80;;;;;;;-0.77;70.67;99581.52;77940;1303;3052526;-61
2023/01/27 19:54:11;;;;;;;34.30;14.50;;;;;;;-0.70;70.45;99586.61;79182;1301;3012971;-61
2023/01/27 19:56:37;;;;;;;37.20;13.90;;;;;;;-0.63;69.87;99587.89;79087;1304;3012952;-61
2023/01/27 19:59:05;;;;;;;36.50;13.90;;;;;;;-0.58;69.78;99585.41;76530;1299;4810018;-61
2023/01/27 20:01:33;;;;;;;29.50;13.00;;;;;;;-0.52;69.47;99585.85;79315;1297;3011521;-61
2023/01/27 20:04:00;;;;;;;36.60;13.20;;;;;;;-0.46;69.07;99586.81;79215;1299;3011465;-61
2023/01/27 20:06:28;;;;;;;35.00;13.60;;;;;;;-0.41;68.91;99582.61;78085;1297;3052018;-61
2023/01/27 20:08:57;;;;;;;34.00;13.80;;;;;;;-0.38;68.67;99588.06;79334;1300;3011430;-61
2023/01/27 20:11:29;;;;;;;32.00;13.20;;;;;;;-0.36;68.51;99587.70;77954;1298;3050433;-60
2023/01/27 20:13:56;;;;;;;33.10;14.30;;;;;;;-0.44;67.91;99580.58;79192;1300;3013637;-62
2023/01/27 20:16:24;;;;;;;30.50;13.30;;;;;;;-0.55;67.91;99583.48;77990;1300;3028247;-61
2023/01/27 20:18:52;;;;;;;31.00;14.10;;;;;;;-0.60;68.16;99583.39;79356;1300;3018868;-61
2023/01/27 20:21:19;;;;;;;33.00;14.20;;;;;;;-0.59;68.21;99582.69;79217;1298;3011889;-61
2023/01/27 20:23:47;;;;;;;29.90;13.30;;;;;;;-0.57;68.04;99580.94;77989;1300;3051760;-62
2023/01/27 20:26:14;;;;;;;33.70;13.50;;;;;;;-0.59;67.90;99583.70;79268;1300;3018296;-61
2023/01/27 20:28:41;;;;;;;39.40;15.60;;;;;;;-0.78;68.14;99583.45;79223;1298;3011562;-61
2023/01/27 20:31:11;;;;;;;33.20;15.40;;;;;;;-0.78;68.49;99580.02;78036;1299;3050273;-61
2023/01/27 20:33:37;;;;;;;39.50;15.30;;;;;;;-0.78;68.19;99579.65;79326;1298;3013959;-62